sensor_id;sensor_type;location;lat;lon;timestamp;P1;durP1;ratioP1;P2;durP2;ratioP2
2766;SDS011;1391;46.742;11.636;2022-08-19T00:00:38;4.87;;;1.70;;
2766;SDS011;1391;46.742;11.636;2022-08-19T00:03:07;2.50;;;1.80;;
2766;SDS011;1391;46.742;11.636;2022-08-19T00:05:36;3.40;;;1.70;;
2766;SDS011;1391;46.742;11.636;2022-08-19T00:08:03;2.60;;;2.00;;
2766;SDS011;1391;46.742;11.636;2022-08-19T00:10:31;2.73;;;1.80;;
2766;SDS011;1391;46.742;11.636;2022-08-19T00:12:59;1.83;;;1.73;;
2766;SDS011;1391;46.742;11.636;2022-08-19T00:15:26;4.10;;;1.90;;
2766;SDS011;1391;46.742;11.636;2022-08-19T00:17:53;5.63;;;1.73;;
2766;SDS011;1391;46.742;11.636;2022-08-19T00:20:21;4.37;;;2.30;;
2766;SDS011;1391;46.742;11.636;2022-08-19T00:22:50;4.67;;;1.90;;
2766;SDS011;1391;46.742;11.636;2022-08-19T00:25:18;4.40;;;2.47;;
2766;SDS011;1391;46.742;11.636;2022-08-19T00:27:45;3.73;;;2.03;;
2766;SDS011;1391;46.742;11.636;2022-08-19T00:30:13;7.00;;;2.07;;
2766;SDS011;1391;46.742;11.636;2022-08-19T00:32:40;2.83;;;1.90;;
2766;SDS011;1391;46.742;11.636;2022-08-19T00:35:10;2.20;;;2.00;;
2766;SDS011;1391;46.742;11.636;2022-08-19T00:37:38;2.17;;;1.97;;
2766;SDS011;1391;46.742;11.636;2022-08-19T00:40:10;4.23;;;2.27;;
2766;SDS011;1391;46.742;11.636;2022-08-19T00:42:39;5.77;;;2.00;;
2766;SDS011;1391;46.742;11.636;2022-08-19T00:45:10;3.97;;;2.30;;
2766;SDS011;1391;46.742;11.636;2022-08-19T00:47:41;5.30;;;2.40;;
2766;SDS011;1391;46.742;11.636;2022-08-19T00:50:09;4.57;;;2.20;;
2766;SDS011;1391;46.742;11.636;2022-08-19T00:52:40;4.30;;;2.20;;
2766;SDS011;1391;46.742;11.636;2022-08-19T00:55:14;2.87;;;2.37;;
2766;SDS011;1391;46.742;11.636;2022-08-19T00:57:46;3.57;;;2.23;;
2766;SDS011;1391;46.742;11.636;2022-08-19T01:00:19;5.13;;;2.27;;
2766;SDS011;1391;46.742;11.636;2022-08-19T01:02:50;7.37;;;3.13;;
2766;SDS011;1391;46.742;11.636;2022-08-19T01:05:21;7.83;;;3.10;;
2766;SDS011;1391;46.742;11.636;2022-08-19T01:07:53;5.03;;;2.70;;
2766;SDS011;1391;46.742;11.636;2022-08-19T01:10:26;8.37;;;2.77;;
2766;SDS011;1391;46.742;11.636;2022-08-19T01:12:57;6.50;;;2.70;;
2766;SDS011;1391;46.742;11.636;2022-08-19T01:15:26;7.73;;;3.20;;
2766;SDS011;1391;46.742;11.636;2022-08-19T01:17:59;6.97;;;3.23;;
2766;SDS011;1391;46.742;11.636;2022-08-19T01:20:31;4.33;;;2.80;;
2766;SDS011;1391;46.742;11.636;2022-08-19T01:23:00;5.87;;;2.97;;
2766;SDS011;1391;46.742;11.636;2022-08-19T01:25:30;15.20;;;3.63;;
2766;SDS011;1391;46.742;11.636;2022-08-19T01:28:02;7.03;;;3.20;;
2766;SDS011;1391;46.742;11.636;2022-08-19T01:30:31;4.17;;;2.70;;
2766;SDS011;1391;46.742;11.636;2022-08-19T01:33:02;6.63;;;3.00;;
2766;SDS011;1391;46.742;11.636;2022-08-19T01:35:30;7.13;;;2.77;;
2766;SDS011;1391;46.742;11.636;2022-08-19T01:37:59;3.10;;;2.50;;
2766;SDS011;1391;46.742;11.636;2022-08-19T01:40:33;8.90;;;2.70;;
2766;SDS011;1391;46.742;11.636;2022-08-19T01:43:05;4.67;;;2.77;;
2766;SDS011;1391;46.742;11.636;2022-08-19T01:45:33;12.70;;;3.10;;
2766;SDS011;1391;46.742;11.636;2022-08-19T01:48:02;4.43;;;3.00;;
2766;SDS011;1391;46.742;11.636;2022-08-19T01:50:31;8.57;;;3.13;;
2766;SDS011;1391;46.742;11.636;2022-08-19T01:53:00;5.23;;;2.80;;
2766;SDS011;1391;46.742;11.636;2022-08-19T01:55:32;4.80;;;3.30;;
2766;SDS011;1391;46.742;11.636;2022-08-19T01:58:02;5.57;;;3.03;;
2766;SDS011;1391;46.742;11.636;2022-08-19T02:00:32;6.03;;;2.97;;
2766;SDS011;1391;46.742;11.636;2022-08-19T02:03:00;5.27;;;2.83;;
2766;SDS011;1391;46.742;11.636;2022-08-19T02:05:27;4.43;;;3.27;;
2766;SDS011;1391;46.742;11.636;2022-08-19T02:07:55;6.77;;;2.67;;
2766;SDS011;1391;46.742;11.636;2022-08-19T02:10:25;6.43;;;2.83;;
2766;SDS011;1391;46.742;11.636;2022-08-19T02:12:52;5.17;;;2.83;;
2766;SDS011;1391;46.742;11.636;2022-08-19T02:15:20;7.00;;;2.83;;
2766;SDS011;1391;46.742;11.636;2022-08-19T02:17:47;2.63;;;2.43;;
2766;SDS011;1391;46.742;11.636;2022-08-19T02:20:15;6.77;;;2.50;;
2766;SDS011;1391;46.742;11.636;2022-08-19T02:22:43;10.60;;;2.70;;
2766;SDS011;1391;46.742;11.636;2022-08-19T02:25:11;3.43;;;2.50;;
2766;SDS011;1391;46.742;11.636;2022-08-19T02:27:41;6.07;;;2.60;;
2766;SDS011;1391;46.742;11.636;2022-08-19T02:30:10;3.50;;;2.23;;
2766;SDS011;1391;46.742;11.636;2022-08-19T02:32:44;3.53;;;2.17;;
2766;SDS011;1391;46.742;11.636;2022-08-19T02:35:11;4.73;;;2.00;;
2766;SDS011;1391;46.742;11.636;2022-08-19T02:37:40;1.90;;;1.67;;
2766;SDS011;1391;46.742;11.636;2022-08-19T02:40:25;3.87;;;2.50;;
2766;SDS011;1391;46.742;11.636;2022-08-19T02:42:54;4.77;;;2.30;;
2766;SDS011;1391;46.742;11.636;2022-08-19T02:45:22;7.87;;;2.73;;
2766;SDS011;1391;46.742;11.636;2022-08-19T02:47:49;3.40;;;2.50;;
2766;SDS011;1391;46.742;11.636;2022-08-19T02:50:16;5.33;;;2.07;;
2766;SDS011;1391;46.742;11.636;2022-08-19T02:52:44;4.87;;;2.40;;
2766;SDS011;1391;46.742;11.636;2022-08-19T02:55:11;3.23;;;2.60;;
2766;SDS011;1391;46.742;11.636;2022-08-19T02:57:38;5.70;;;2.60;;
2766;SDS011;1391;46.742;11.636;2022-08-19T03:00:08;4.07;;;2.43;;
2766;SDS011;1391;46.742;11.636;2022-08-19T03:02:37;3.80;;;2.20;;
2766;SDS011;1391;46.742;11.636;2022-08-19T03:05:05;4.87;;;2.23;;
2766;SDS011;1391;46.742;11.636;2022-08-19T03:07:34;4.20;;;2.20;;
2766;SDS011;1391;46.742;11.636;2022-08-19T03:10:02;5.63;;;2.43;;
2766;SDS011;1391;46.742;11.636;2022-08-19T03:12:30;3.40;;;2.17;;
2766;SDS011;1391;46.742;11.636;2022-08-19T03:15:02;3.90;;;2.40;;
2766;SDS011;1391;46.742;11.636;2022-08-19T03:17:32;4.43;;;2.63;;
2766;SDS011;1391;46.742;11.636;2022-08-19T03:20:00;3.50;;;2.57;;
2766;SDS011;1391;46.742;11.636;2022-08-19T03:22:27;6.50;;;2.10;;
2766;SDS011;1391;46.742;11.636;2022-08-19T03:24:55;4.27;;;2.00;;
2766;SDS011;1391;46.742;11.636;2022-08-19T03:27:22;3.57;;;2.40;;
2766;SDS011;1391;46.742;11.636;2022-08-19T03:29:49;4.20;;;2.30;;
2766;SDS011;1391;46.742;11.636;2022-08-19T03:32:17;1.80;;;1.70;;
2766;SDS011;1391;46.742;11.636;2022-08-19T03:34:46;5.10;;;1.90;;
2766;SDS011;1391;46.742;11.636;2022-08-19T03:37:14;2.60;;;1.90;;
2766;SDS011;1391;46.742;11.636;2022-08-19T03:39:41;3.03;;;1.80;;
2766;SDS011;1391;46.742;11.636;2022-08-19T03:42:09;3.73;;;1.67;;
2766;SDS011;1391;46.742;11.636;2022-08-19T03:44:37;3.20;;;1.70;;
2766;SDS011;1391;46.742;11.636;2022-08-19T03:47:06;5.60;;;1.73;;
2766;SDS011;1391;46.742;11.636;2022-08-19T03:49:33;3.57;;;1.50;;
2766;SDS011;1391;46.742;11.636;2022-08-19T03:52:03;4.40;;;1.70;;
2766;SDS011;1391;46.742;11.636;2022-08-19T03:54:32;2.67;;;1.70;;
2766;SDS011;1391;46.742;11.636;2022-08-19T03:57:00;6.63;;;1.83;;
2766;SDS011;1391;46.742;11.636;2022-08-19T03:59:28;3.03;;;1.77;;
2766;SDS011;1391;46.742;11.636;2022-08-19T04:02:05;1.77;;;1.43;;
2766;SDS011;1391;46.742;11.636;2022-08-19T04:04:35;3.00;;;1.60;;
2766;SDS011;1391;46.742;11.636;2022-08-19T04:07:05;2.03;;;1.37;;
2766;SDS011;1391;46.742;11.636;2022-08-19T04:09:35;1.73;;;1.33;;
2766;SDS011;1391;46.742;11.636;2022-08-19T04:12:03;3.33;;;1.83;;
2766;SDS011;1391;46.742;11.636;2022-08-19T04:14:32;2.40;;;1.40;;
2766;SDS011;1391;46.742;11.636;2022-08-19T04:17:01;4.80;;;1.33;;
2766;SDS011;1391;46.742;11.636;2022-08-19T04:19:30;2.20;;;1.30;;
2766;SDS011;1391;46.742;11.636;2022-08-19T04:21:58;3.33;;;1.30;;
2766;SDS011;1391;46.742;11.636;2022-08-19T04:24:27;2.63;;;1.40;;
2766;SDS011;1391;46.742;11.636;2022-08-19T04:26:54;6.07;;;1.30;;
2766;SDS011;1391;46.742;11.636;2022-08-19T04:29:23;2.50;;;1.20;;
2766;SDS011;1391;46.742;11.636;2022-08-19T04:31:52;2.87;;;1.13;;
2766;SDS011;1391;46.742;11.636;2022-08-19T04:34:22;7.17;;;1.40;;
2766;SDS011;1391;46.742;11.636;2022-08-19T04:36:53;3.10;;;1.23;;
2766;SDS011;1391;46.742;11.636;2022-08-19T04:39:25;4.30;;;1.40;;
2766;SDS011;1391;46.742;11.636;2022-08-19T04:42:10;4.40;;;1.60;;
2766;SDS011;1391;46.742;11.636;2022-08-19T04:44:56;4.63;;;1.73;;
2766;SDS011;1391;46.742;11.636;2022-08-19T04:47:24;4.47;;;1.40;;
2766;SDS011;1391;46.742;11.636;2022-08-19T04:49:51;3.00;;;1.20;;
2766;SDS011;1391;46.742;11.636;2022-08-19T04:52:19;1.80;;;1.20;;
2766;SDS011;1391;46.742;11.636;2022-08-19T04:54:48;1.60;;;1.10;;
2766;SDS011;1391;46.742;11.636;2022-08-19T04:57:15;2.67;;;1.00;;
2766;SDS011;1391;46.742;11.636;2022-08-19T04:59:42;3.53;;;1.23;;
2766;SDS011;1391;46.742;11.636;2022-08-19T05:02:09;3.13;;;1.13;;
2766;SDS011;1391;46.742;11.636;2022-08-19T05:04:37;1.87;;;1.00;;
2766;SDS011;1391;46.742;11.636;2022-08-19T05:07:05;3.37;;;1.30;;
2766;SDS011;1391;46.742;11.636;2022-08-19T05:09:33;4.93;;;1.43;;
2766;SDS011;1391;46.742;11.636;2022-08-19T05:12:03;3.23;;;1.67;;
2766;SDS011;1391;46.742;11.636;2022-08-19T05:14:31;3.30;;;1.17;;
2766;SDS011;1391;46.742;11.636;2022-08-19T05:17:00;2.33;;;1.43;;
2766;SDS011;1391;46.742;11.636;2022-08-19T05:19:27;2.40;;;1.30;;
2766;SDS011;1391;46.742;11.636;2022-08-19T05:22:15;3.63;;;1.33;;
2766;SDS011;1391;46.742;11.636;2022-08-19T05:25:02;1.47;;;1.30;;
2766;SDS011;1391;46.742;11.636;2022-08-19T05:27:33;4.70;;;1.33;;
2766;SDS011;1391;46.742;11.636;2022-08-19T05:30:03;2.17;;;1.20;;
2766;SDS011;1391;46.742;11.636;2022-08-19T05:32:32;2.13;;;1.40;;
2766;SDS011;1391;46.742;11.636;2022-08-19T05:34:59;2.30;;;1.30;;
2766;SDS011;1391;46.742;11.636;2022-08-19T05:37:26;1.27;;;1.17;;
2766;SDS011;1391;46.742;11.636;2022-08-19T05:39:54;5.60;;;1.37;;
2766;SDS011;1391;46.742;11.636;2022-08-19T05:42:21;3.60;;;1.63;;
2766;SDS011;1391;46.742;11.636;2022-08-19T05:44:51;3.83;;;1.13;;
2766;SDS011;1391;46.742;11.636;2022-08-19T05:47:22;2.77;;;1.13;;
2766;SDS011;1391;46.742;11.636;2022-08-19T05:49:49;4.67;;;1.50;;
2766;SDS011;1391;46.742;11.636;2022-08-19T05:52:17;6.23;;;1.40;;
2766;SDS011;1391;46.742;11.636;2022-08-19T05:54:45;3.27;;;1.53;;
2766;SDS011;1391;46.742;11.636;2022-08-19T05:57:16;3.17;;;1.30;;
2766;SDS011;1391;46.742;11.636;2022-08-19T05:59:43;4.03;;;1.40;;
2766;SDS011;1391;46.742;11.636;2022-08-19T06:02:17;6.63;;;1.30;;
2766;SDS011;1391;46.742;11.636;2022-08-19T06:04:44;5.90;;;1.30;;
2766;SDS011;1391;46.742;11.636;2022-08-19T06:07:12;2.73;;;1.40;;
2766;SDS011;1391;46.742;11.636;2022-08-19T06:09:40;2.97;;;1.37;;
2766;SDS011;1391;46.742;11.636;2022-08-19T06:12:07;2.47;;;1.53;;
2766;SDS011;1391;46.742;11.636;2022-08-19T06:14:34;2.60;;;1.20;;
2766;SDS011;1391;46.742;11.636;2022-08-19T06:17:02;4.70;;;1.70;;
2766;SDS011;1391;46.742;11.636;2022-08-19T06:19:31;4.87;;;1.63;;
2766;SDS011;1391;46.742;11.636;2022-08-19T06:21:58;3.37;;;1.30;;
2766;SDS011;1391;46.742;11.636;2022-08-19T06:24:27;2.30;;;1.30;;
2766;SDS011;1391;46.742;11.636;2022-08-19T06:26:57;3.83;;;1.20;;
2766;SDS011;1391;46.742;11.636;2022-08-19T06:29:27;3.00;;;1.33;;
2766;SDS011;1391;46.742;11.636;2022-08-19T06:31:57;4.40;;;1.67;;
2766;SDS011;1391;46.742;11.636;2022-08-19T06:34:28;5.30;;;1.10;;
2766;SDS011;1391;46.742;11.636;2022-08-19T06:36:59;2.57;;;1.10;;
2766;SDS011;1391;46.742;11.636;2022-08-19T06:39:28;3.37;;;1.60;;
2766;SDS011;1391;46.742;11.636;2022-08-19T06:41:59;4.70;;;1.73;;
2766;SDS011;1391;46.742;11.636;2022-08-19T06:44:32;4.40;;;1.60;;
2766;SDS011;1391;46.742;11.636;2022-08-19T06:47:03;3.33;;;1.73;;
2766;SDS011;1391;46.742;11.636;2022-08-19T06:49:37;3.53;;;1.60;;
2766;SDS011;1391;46.742;11.636;2022-08-19T06:52:04;6.57;;;2.00;;
2766;SDS011;1391;46.742;11.636;2022-08-19T06:54:32;3.50;;;1.60;;
2766;SDS011;1391;46.742;11.636;2022-08-19T06:57:01;2.70;;;1.40;;
2766;SDS011;1391;46.742;11.636;2022-08-19T06:59:29;1.73;;;1.30;;
2766;SDS011;1391;46.742;11.636;2022-08-19T07:01:58;4.53;;;1.47;;
2766;SDS011;1391;46.742;11.636;2022-08-19T07:04:31;4.90;;;1.90;;
2766;SDS011;1391;46.742;11.636;2022-08-19T07:07:02;3.43;;;1.50;;
2766;SDS011;1391;46.742;11.636;2022-08-19T07:09:32;3.03;;;1.30;;
2766;SDS011;1391;46.742;11.636;2022-08-19T07:12:02;1.30;;;1.20;;
2766;SDS011;1391;46.742;11.636;2022-08-19T07:14:32;2.20;;;1.60;;
2766;SDS011;1391;46.742;11.636;2022-08-19T07:17:03;2.97;;;1.47;;
2766;SDS011;1391;46.742;11.636;2022-08-19T07:19:33;3.87;;;1.57;;
2766;SDS011;1391;46.742;11.636;2022-08-19T07:22:04;3.73;;;1.37;;
2766;SDS011;1391;46.742;11.636;2022-08-19T07:24:33;2.13;;;1.60;;
2766;SDS011;1391;46.742;11.636;2022-08-19T07:27:02;3.47;;;1.60;;
2766;SDS011;1391;46.742;11.636;2022-08-19T07:29:32;2.43;;;1.37;;
2766;SDS011;1391;46.742;11.636;2022-08-19T07:32:02;2.60;;;1.40;;
2766;SDS011;1391;46.742;11.636;2022-08-19T07:34:30;8.00;;;1.40;;
2766;SDS011;1391;46.742;11.636;2022-08-19T07:37:01;2.67;;;1.37;;
2766;SDS011;1391;46.742;11.636;2022-08-19T07:39:32;3.63;;;1.57;;
2766;SDS011;1391;46.742;11.636;2022-08-19T07:42:02;3.23;;;1.20;;
2766;SDS011;1391;46.742;11.636;2022-08-19T07:44:35;3.90;;;1.30;;
2766;SDS011;1391;46.742;11.636;2022-08-19T07:47:04;1.53;;;1.10;;
2766;SDS011;1391;46.742;11.636;2022-08-19T07:49:31;2.43;;;1.30;;
2766;SDS011;1391;46.742;11.636;2022-08-19T07:51:59;2.03;;;1.23;;
2766;SDS011;1391;46.742;11.636;2022-08-19T07:54:32;2.80;;;1.30;;
2766;SDS011;1391;46.742;11.636;2022-08-19T07:57:02;3.00;;;1.40;;
2766;SDS011;1391;46.742;11.636;2022-08-19T07:59:31;4.73;;;1.40;;
2766;SDS011;1391;46.742;11.636;2022-08-19T08:01:58;4.07;;;1.53;;
2766;SDS011;1391;46.742;11.636;2022-08-19T08:04:26;3.00;;;1.20;;
2766;SDS011;1391;46.742;11.636;2022-08-19T08:07:12;3.70;;;1.47;;
2766;SDS011;1391;46.742;11.636;2022-08-19T08:09:57;3.23;;;1.00;;
2766;SDS011;1391;46.742;11.636;2022-08-19T08:12:26;2.37;;;1.20;;
2766;SDS011;1391;46.742;11.636;2022-08-19T08:14:57;2.70;;;1.00;;
2766;SDS011;1391;46.742;11.636;2022-08-19T08:17:29;1.90;;;1.20;;
2766;SDS011;1391;46.742;11.636;2022-08-19T08:19:58;1.97;;;1.00;;
2766;SDS011;1391;46.742;11.636;2022-08-19T08:22:27;2.03;;;0.90;;
2766;SDS011;1391;46.742;11.636;2022-08-19T08:25:12;2.97;;;1.10;;
2766;SDS011;1391;46.742;11.636;2022-08-19T08:27:43;2.07;;;1.20;;
2766;SDS011;1391;46.742;11.636;2022-08-19T08:30:12;1.80;;;1.13;;
2766;SDS011;1391;46.742;11.636;2022-08-19T08:32:43;2.37;;;0.80;;
2766;SDS011;1391;46.742;11.636;2022-08-19T08:35:11;2.70;;;1.00;;
2766;SDS011;1391;46.742;11.636;2022-08-19T08:37:42;2.87;;;1.03;;
2766;SDS011;1391;46.742;11.636;2022-08-19T08:40:13;1.63;;;1.20;;
2766;SDS011;1391;46.742;11.636;2022-08-19T08:42:50;3.07;;;1.23;;
2766;SDS011;1391;46.742;11.636;2022-08-19T08:45:25;2.43;;;1.30;;
2766;SDS011;1391;46.742;11.636;2022-08-19T08:47:55;3.33;;;0.97;;
2766;SDS011;1391;46.742;11.636;2022-08-19T08:50:29;1.20;;;1.10;;
2766;SDS011;1391;46.742;11.636;2022-08-19T08:53:04;2.00;;;1.00;;
2766;SDS011;1391;46.742;11.636;2022-08-19T08:55:33;1.77;;;0.93;;
2766;SDS011;1391;46.742;11.636;2022-08-19T08:58:01;4.20;;;0.80;;
2766;SDS011;1391;46.742;11.636;2022-08-19T09:00:33;1.37;;;0.90;;
2766;SDS011;1391;46.742;11.636;2022-08-19T09:03:05;1.73;;;0.83;;
2766;SDS011;1391;46.742;11.636;2022-08-19T09:05:47;1.83;;;0.90;;
2766;SDS011;1391;46.742;11.636;2022-08-19T09:08:28;1.47;;;0.70;;
2766;SDS011;1391;46.742;11.636;2022-08-19T09:11:08;1.47;;;0.70;;
2766;SDS011;1391;46.742;11.636;2022-08-19T09:13:41;1.67;;;0.90;;
2766;SDS011;1391;46.742;11.636;2022-08-19T09:16:18;7.93;;;1.40;;
2766;SDS011;1391;46.742;11.636;2022-08-19T09:18:52;2.20;;;0.93;;
2766;SDS011;1391;46.742;11.636;2022-08-19T09:21:23;1.13;;;0.70;;
2766;SDS011;1391;46.742;11.636;2022-08-19T09:23:54;1.27;;;0.50;;
2766;SDS011;1391;46.742;11.636;2022-08-19T09:26:22;1.93;;;0.70;;
2766;SDS011;1391;46.742;11.636;2022-08-19T09:28:51;3.27;;;0.87;;
2766;SDS011;1391;46.742;11.636;2022-08-19T09:31:20;1.97;;;0.80;;
2766;SDS011;1391;46.742;11.636;2022-08-19T09:33:49;1.30;;;0.60;;
2766;SDS011;1391;46.742;11.636;2022-08-19T09:36:19;1.50;;;0.60;;
2766;SDS011;1391;46.742;11.636;2022-08-19T09:38:49;2.17;;;0.97;;
2766;SDS011;1391;46.742;11.636;2022-08-19T09:41:19;2.33;;;0.77;;
2766;SDS011;1391;46.742;11.636;2022-08-19T09:43:49;2.97;;;1.30;;
2766;SDS011;1391;46.742;11.636;2022-08-19T09:46:21;2.47;;;1.00;;
2766;SDS011;1391;46.742;11.636;2022-08-19T09:48:51;3.00;;;1.23;;
2766;SDS011;1391;46.742;11.636;2022-08-19T09:51:19;1.60;;;0.80;;
2766;SDS011;1391;46.742;11.636;2022-08-19T09:53:51;1.60;;;0.80;;
2766;SDS011;1391;46.742;11.636;2022-08-19T09:56:21;1.77;;;0.90;;
2766;SDS011;1391;46.742;11.636;2022-08-19T09:58:48;2.73;;;0.90;;
2766;SDS011;1391;46.742;11.636;2022-08-19T10:01:17;1.90;;;0.87;;
2766;SDS011;1391;46.742;11.636;2022-08-19T10:03:47;0.90;;;0.60;;
2766;SDS011;1391;46.742;11.636;2022-08-19T10:06:16;2.20;;;1.17;;
2766;SDS011;1391;46.742;11.636;2022-08-19T10:08:45;2.07;;;0.97;;
2766;SDS011;1391;46.742;11.636;2022-08-19T10:11:12;1.17;;;0.53;;
2766;SDS011;1391;46.742;11.636;2022-08-19T10:13:43;1.97;;;0.97;;
2766;SDS011;1391;46.742;11.636;2022-08-19T10:16:12;1.00;;;0.70;;
2766;SDS011;1391;46.742;11.636;2022-08-19T10:18:42;1.63;;;0.70;;
2766;SDS011;1391;46.742;11.636;2022-08-19T10:21:11;2.03;;;0.80;;
2766;SDS011;1391;46.742;11.636;2022-08-19T10:23:41;2.13;;;0.85;;
2766;SDS011;1391;46.742;11.636;2022-08-19T10:26:11;1.05;;;0.70;;
2766;SDS011;1391;46.742;11.636;2022-08-19T10:28:44;1.75;;;0.60;;
2766;SDS011;1391;46.742;11.636;2022-08-19T10:31:15;2.40;;;0.95;;
2766;SDS011;1391;46.742;11.636;2022-08-19T10:33:45;1.65;;;0.60;;
2766;SDS011;1391;46.742;11.636;2022-08-19T10:36:14;1.58;;;0.75;;
2766;SDS011;1391;46.742;11.636;2022-08-19T10:38:44;3.25;;;0.95;;
2766;SDS011;1391;46.742;11.636;2022-08-19T10:41:15;0.95;;;0.68;;
2766;SDS011;1391;46.742;11.636;2022-08-19T10:43:46;2.95;;;0.73;;
2766;SDS011;1391;46.742;11.636;2022-08-19T10:46:14;0.70;;;0.70;;
2766;SDS011;1391;46.742;11.636;2022-08-19T10:48:42;3.80;;;0.80;;
2766;SDS011;1391;46.742;11.636;2022-08-19T10:51:10;4.65;;;1.10;;
2766;SDS011;1391;46.742;11.636;2022-08-19T10:53:56;2.10;;;0.60;;
2766;SDS011;1391;46.742;11.636;2022-08-19T10:56:25;2.92;;;0.98;;
2766;SDS011;1391;46.742;11.636;2022-08-19T10:59:12;2.33;;;0.60;;
2766;SDS011;1391;46.742;11.636;2022-08-19T11:01:40;2.58;;;0.80;;
2766;SDS011;1391;46.742;11.636;2022-08-19T11:04:09;3.17;;;1.02;;
2766;SDS011;1391;46.742;11.636;2022-08-19T11:06:38;1.75;;;0.80;;
2766;SDS011;1391;46.742;11.636;2022-08-19T11:09:07;2.42;;;1.10;;
2766;SDS011;1391;46.742;11.636;2022-08-19T11:11:34;6.30;;;1.10;;
2766;SDS011;1391;46.742;11.636;2022-08-19T11:14:04;2.63;;;0.93;;
2766;SDS011;1391;46.742;11.636;2022-08-19T11:16:33;1.67;;;0.97;;
2766;SDS011;1391;46.742;11.636;2022-08-19T11:19:00;2.80;;;1.00;;
2766;SDS011;1391;46.742;11.636;2022-08-19T11:21:28;1.30;;;0.93;;
2766;SDS011;1391;46.742;11.636;2022-08-19T11:24:00;2.73;;;1.03;;
2766;SDS011;1391;46.742;11.636;2022-08-19T11:26:31;4.50;;;0.60;;
2766;SDS011;1391;46.742;11.636;2022-08-19T11:28:59;4.13;;;1.70;;
2766;SDS011;1391;46.742;11.636;2022-08-19T11:31:28;1.27;;;0.83;;
2766;SDS011;1391;46.742;11.636;2022-08-19T11:34:00;2.23;;;0.90;;
2766;SDS011;1391;46.742;11.636;2022-08-19T11:36:31;3.93;;;1.03;;
2766;SDS011;1391;46.742;11.636;2022-08-19T11:39:00;2.77;;;0.97;;
2766;SDS011;1391;46.742;11.636;2022-08-19T11:41:28;1.77;;;0.83;;
2766;SDS011;1391;46.742;11.636;2022-08-19T11:43:56;0.93;;;0.70;;
2766;SDS011;1391;46.742;11.636;2022-08-19T11:46:24;1.70;;;0.90;;
2766;SDS011;1391;46.742;11.636;2022-08-19T11:48:54;2.53;;;0.80;;
2766;SDS011;1391;46.742;11.636;2022-08-19T11:51:24;1.10;;;0.90;;
2766;SDS011;1391;46.742;11.636;2022-08-19T11:53:52;2.57;;;1.00;;
2766;SDS011;1391;46.742;11.636;2022-08-19T11:56:20;3.83;;;1.30;;
2766;SDS011;1391;46.742;11.636;2022-08-19T11:58:49;4.00;;;0.80;;
2766;SDS011;1391;46.742;11.636;2022-08-19T12:01:17;2.07;;;0.90;;
2766;SDS011;1391;46.742;11.636;2022-08-19T12:03:48;3.73;;;0.87;;
2766;SDS011;1391;46.742;11.636;2022-08-19T12:06:21;1.23;;;0.70;;
2766;SDS011;1391;46.742;11.636;2022-08-19T12:08:53;3.07;;;0.93;;
2766;SDS011;1391;46.742;11.636;2022-08-19T12:11:22;3.00;;;0.80;;
2766;SDS011;1391;46.742;11.636;2022-08-19T12:13:50;2.77;;;1.00;;
2766;SDS011;1391;46.742;11.636;2022-08-19T12:16:20;3.90;;;0.93;;
2766;SDS011;1391;46.742;11.636;2022-08-19T12:18:49;1.10;;;0.70;;
2766;SDS011;1391;46.742;11.636;2022-08-19T12:21:18;3.73;;;1.10;;
2766;SDS011;1391;46.742;11.636;2022-08-19T12:23:49;1.63;;;0.90;;
2766;SDS011;1391;46.742;11.636;2022-08-19T12:26:18;4.13;;;1.00;;
2766;SDS011;1391;46.742;11.636;2022-08-19T12:28:45;3.13;;;1.13;;
2766;SDS011;1391;46.742;11.636;2022-08-19T12:31:13;4.37;;;1.17;;
2766;SDS011;1391;46.742;11.636;2022-08-19T12:33:41;1.30;;;1.00;;
2766;SDS011;1391;46.742;11.636;2022-08-19T12:36:09;2.80;;;1.00;;
2766;SDS011;1391;46.742;11.636;2022-08-19T12:38:39;2.10;;;1.10;;
2766;SDS011;1391;46.742;11.636;2022-08-19T12:41:10;1.57;;;0.80;;
2766;SDS011;1391;46.742;11.636;2022-08-19T12:43:40;2.63;;;0.90;;
2766;SDS011;1391;46.742;11.636;2022-08-19T12:46:07;2.10;;;0.80;;
2766;SDS011;1391;46.742;11.636;2022-08-19T12:48:35;1.40;;;0.90;;
2766;SDS011;1391;46.742;11.636;2022-08-19T12:51:06;1.40;;;0.82;;
2766;SDS011;1391;46.742;11.636;2022-08-19T12:53:35;1.48;;;0.60;;
2766;SDS011;1391;46.742;11.636;2022-08-19T12:56:02;2.00;;;0.90;;
2766;SDS011;1391;46.742;11.636;2022-08-19T12:58:31;1.63;;;0.82;;
2766;SDS011;1391;46.742;11.636;2022-08-19T13:01:00;1.48;;;0.80;;
2766;SDS011;1391;46.742;11.636;2022-08-19T13:03:33;1.77;;;0.98;;
2766;SDS011;1391;46.742;11.636;2022-08-19T13:06:02;1.00;;;0.80;;
2766;SDS011;1391;46.742;11.636;2022-08-19T13:08:29;1.63;;;0.88;;
2766;SDS011;1391;46.742;11.636;2022-08-19T13:10:57;3.78;;;1.15;;
2766;SDS011;1391;46.742;11.636;2022-08-19T13:13:24;0.90;;;0.50;;
2766;SDS011;1391;46.742;11.636;2022-08-19T13:15:59;1.65;;;0.90;;
2766;SDS011;1391;46.742;11.636;2022-08-19T13:18:29;2.53;;;0.68;;
2766;SDS011;1391;46.742;11.636;2022-08-19T13:20:56;1.92;;;0.90;;
2766;SDS011;1391;46.742;11.636;2022-08-19T13:23:28;2.22;;;1.02;;
2766;SDS011;1391;46.742;11.636;2022-08-19T13:25:56;1.00;;;0.68;;
2766;SDS011;1391;46.742;11.636;2022-08-19T13:28:24;3.05;;;0.95;;
2766;SDS011;1391;46.742;11.636;2022-08-19T13:30:52;2.45;;;0.70;;
2766;SDS011;1391;46.742;11.636;2022-08-19T13:33:37;3.03;;;0.90;;
2766;SDS011;1391;46.742;11.636;2022-08-19T13:36:04;0.75;;;0.60;;
2766;SDS011;1391;46.742;11.636;2022-08-19T13:38:32;2.45;;;1.13;;
2766;SDS011;1391;46.742;11.636;2022-08-19T13:41:03;1.30;;;0.80;;
2766;SDS011;1391;46.742;11.636;2022-08-19T13:43:33;3.90;;;0.75;;
2766;SDS011;1391;46.742;11.636;2022-08-19T13:46:07;2.35;;;1.00;;
2766;SDS011;1391;46.742;11.636;2022-08-19T13:48:38;1.73;;;0.80;;
2766;SDS011;1391;46.742;11.636;2022-08-19T13:51:06;1.77;;;0.82;;
2766;SDS011;1391;46.742;11.636;2022-08-19T13:53:35;3.15;;;1.13;;
2766;SDS011;1391;46.742;11.636;2022-08-19T13:56:04;1.58;;;0.93;;
2766;SDS011;1391;46.742;11.636;2022-08-19T13:58:33;1.55;;;0.70;;
2766;SDS011;1391;46.742;11.636;2022-08-19T14:01:01;2.17;;;0.80;;
2766;SDS011;1391;46.742;11.636;2022-08-19T14:03:30;1.92;;;0.93;;
2766;SDS011;1391;46.742;11.636;2022-08-19T14:05:58;1.23;;;0.80;;
2766;SDS011;1391;46.742;11.636;2022-08-19T14:08:26;2.47;;;0.77;;
2766;SDS011;1391;46.742;11.636;2022-08-19T14:10:54;2.83;;;1.00;;
2766;SDS011;1391;46.742;11.636;2022-08-19T14:13:24;1.88;;;0.90;;
2766;SDS011;1391;46.742;11.636;2022-08-19T14:15:51;2.78;;;0.93;;
2766;SDS011;1391;46.742;11.636;2022-08-19T14:18:21;2.55;;;1.00;;
2766;SDS011;1391;46.742;11.636;2022-08-19T14:20:49;2.15;;;0.80;;
2766;SDS011;1391;46.742;11.636;2022-08-19T14:23:16;2.60;;;0.85;;
2766;SDS011;1391;46.742;11.636;2022-08-19T14:25:45;2.53;;;1.10;;
2766;SDS011;1391;46.742;11.636;2022-08-19T14:28:12;6.97;;;1.37;;
2766;SDS011;1391;46.742;11.636;2022-08-19T14:30:39;3.20;;;1.10;;
2766;SDS011;1391;46.742;11.636;2022-08-19T14:33:07;2.23;;;0.70;;
2766;SDS011;1391;46.742;11.636;2022-08-19T14:35:35;3.13;;;0.97;;
2766;SDS011;1391;46.742;11.636;2022-08-19T14:38:04;2.43;;;1.07;;
2766;SDS011;1391;46.742;11.636;2022-08-19T14:40:33;4.40;;;1.00;;
2766;SDS011;1391;46.742;11.636;2022-08-19T14:43:00;10.33;;;1.17;;
2766;SDS011;1391;46.742;11.636;2022-08-19T14:45:31;2.70;;;1.03;;
2766;SDS011;1391;46.742;11.636;2022-08-19T14:48:01;3.10;;;1.27;;
2766;SDS011;1391;46.742;11.636;2022-08-19T14:50:29;3.03;;;0.97;;
2766;SDS011;1391;46.742;11.636;2022-08-19T14:53:01;3.67;;;1.03;;
2766;SDS011;1391;46.742;11.636;2022-08-19T14:55:32;3.37;;;1.20;;
2766;SDS011;1391;46.742;11.636;2022-08-19T14:58:00;4.20;;;1.20;;
2766;SDS011;1391;46.742;11.636;2022-08-19T15:00:28;3.87;;;1.17;;
2766;SDS011;1391;46.742;11.636;2022-08-19T15:02:55;2.17;;;0.80;;
2766;SDS011;1391;46.742;11.636;2022-08-19T15:05:24;2.40;;;0.90;;
2766;SDS011;1391;46.742;11.636;2022-08-19T15:07:51;2.30;;;0.80;;
2766;SDS011;1391;46.742;11.636;2022-08-19T15:10:23;2.27;;;0.97;;
2766;SDS011;1391;46.742;11.636;2022-08-19T15:12:50;2.20;;;1.00;;
2766;SDS011;1391;46.742;11.636;2022-08-19T15:15:19;0.87;;;0.80;;